sensor_id;sensor_type;location;lat;lon;timestamp;P1;durP1;ratioP1;P2;durP2;ratioP2
17927;SDS011;9089;58.396;15.544;2022-09-27T00:01:12;2.17;;;1.00;;
17927;SDS011;9089;58.396;15.544;2022-09-27T00:03:38;1.60;;;0.98;;
17927;SDS011;9089;58.396;15.544;2022-09-27T00:06:05;2.47;;;0.95;;
17927;SDS011;9089;58.396;15.544;2022-09-27T00:08:32;3.30;;;1.20;;
17927;SDS011;9089;58.396;15.544;2022-09-27T00:10:58;2.55;;;1.20;;
17927;SDS011;9089;58.396;15.544;2022-09-27T00:13:23;3.05;;;1.20;;
17927;SDS011;9089;58.396;15.544;2022-09-27T00:15:54;3.50;;;1.08;;
17927;SDS011;9089;58.396;15.544;2022-09-27T00:18:19;2.92;;;0.98;;
17927;SDS011;9089;58.396;15.544;2022-09-27T00:20:45;1.65;;;1.10;;
17927;SDS011;9089;58.396;15.544;2022-09-27T00:23:12;1.92;;;1.10;;
17927;SDS011;9089;58.396;15.544;2022-09-27T00:25:38;1.48;;;0.98;;
17927;SDS011;9089;58.396;15.544;2022-09-27T00:28:03;2.85;;;1.20;;
17927;SDS011;9089;58.396;15.544;2022-09-27T00:30:29;1.73;;;1.05;;
17927;SDS011;9089;58.396;15.544;2022-09-27T00:32:54;2.63;;;0.95;;
17927;SDS011;9089;58.396;15.544;2022-09-27T00:35:19;1.98;;;1.17;;
17927;SDS011;9089;58.396;15.544;2022-09-27T00:37:46;3.17;;;1.27;;
17927;SDS011;9089;58.396;15.544;2022-09-27T00:40:13;2.53;;;1.20;;
17927;SDS011;9089;58.396;15.544;2022-09-27T00:42:39;1.70;;;0.95;;
17927;SDS011;9089;58.396;15.544;2022-09-27T00:45:08;3.03;;;1.13;;
17927;SDS011;9089;58.396;15.544;2022-09-27T00:47:38;1.15;;;0.90;;
17927;SDS011;9089;58.396;15.544;2022-09-27T00:50:07;1.20;;;1.10;;
17927;SDS011;9089;58.396;15.544;2022-09-27T00:52:35;1.70;;;0.98;;
17927;SDS011;9089;58.396;15.544;2022-09-27T00:55:07;2.08;;;0.93;;
17927;SDS011;9089;58.396;15.544;2022-09-27T00:57:36;4.88;;;1.50;;
17927;SDS011;9089;58.396;15.544;2022-09-27T01:00:03;1.88;;;1.00;;
17927;SDS011;9089;58.396;15.544;2022-09-27T01:02:29;2.55;;;0.93;;
17927;SDS011;9089;58.396;15.544;2022-09-27T01:04:56;3.85;;;1.10;;
17927;SDS011;9089;58.396;15.544;2022-09-27T01:07:21;4.93;;;1.45;;
17927;SDS011;9089;58.396;15.544;2022-09-27T01:09:47;1.77;;;1.17;;
17927;SDS011;9089;58.396;15.544;2022-09-27T01:12:15;1.65;;;1.20;;
17927;SDS011;9089;58.396;15.544;2022-09-27T01:14:50;4.88;;;1.48;;
17927;SDS011;9089;58.396;15.544;2022-09-27T01:17:21;5.05;;;1.10;;
17927;SDS011;9089;58.396;15.544;2022-09-27T01:19:59;2.47;;;1.10;;
17927;SDS011;9089;58.396;15.544;2022-09-27T01:22:28;1.92;;;1.25;;
17927;SDS011;9089;58.396;15.544;2022-09-27T01:25:02;1.70;;;0.98;;
17927;SDS011;9089;58.396;15.544;2022-09-27T01:27:35;2.55;;;1.33;;
17927;SDS011;9089;58.396;15.544;2022-09-27T01:30:21;1.98;;;1.10;;
17927;SDS011;9089;58.396;15.544;2022-09-27T01:32:53;2.30;;;1.10;;
17927;SDS011;9089;58.396;15.544;2022-09-27T01:35:24;3.40;;;1.25;;
17927;SDS011;9089;58.396;15.544;2022-09-27T01:37:55;3.70;;;1.13;;
17927;SDS011;9089;58.396;15.544;2022-09-27T01:40:26;3.38;;;1.20;;
17927;SDS011;9089;58.396;15.544;2022-09-27T01:43:14;1.65;;;1.05;;
17927;SDS011;9089;58.396;15.544;2022-09-27T01:45:43;3.20;;;1.23;;
17927;SDS011;9089;58.396;15.544;2022-09-27T01:48:20;4.78;;;1.38;;
17927;SDS011;9089;58.396;15.544;2022-09-27T01:50:54;1.70;;;1.20;;
17927;SDS011;9089;58.396;15.544;2022-09-27T01:53:23;1.50;;;1.20;;
17927;SDS011;9089;58.396;15.544;2022-09-27T01:56:09;4.50;;;1.48;;
17927;SDS011;9089;58.396;15.544;2022-09-27T01:58:55;2.63;;;1.30;;
17927;SDS011;9089;58.396;15.544;2022-09-27T02:01:23;3.33;;;1.10;;
17927;SDS011;9089;58.396;15.544;2022-09-27T02:03:51;3.25;;;1.60;;
17927;SDS011;9089;58.396;15.544;2022-09-27T02:06:37;3.45;;;1.48;;
17927;SDS011;9089;58.396;15.544;2022-09-27T02:09:15;1.30;;;1.08;;
17927;SDS011;9089;58.396;15.544;2022-09-27T02:12:01;2.53;;;1.33;;
17927;SDS011;9089;58.396;15.544;2022-09-27T02:14:30;3.70;;;1.48;;
17927;SDS011;9089;58.396;15.544;2022-09-27T02:17:04;2.33;;;1.20;;
17927;SDS011;9089;58.396;15.544;2022-09-27T02:19:33;1.85;;;1.20;;
17927;SDS011;9089;58.396;15.544;2022-09-27T02:22:05;2.65;;;1.40;;
17927;SDS011;9089;58.396;15.544;2022-09-27T02:24:36;4.53;;;1.33;;
17927;SDS011;9089;58.396;15.544;2022-09-27T02:27:05;4.63;;;1.80;;
17927;SDS011;9089;58.396;15.544;2022-09-27T02:29:33;2.05;;;1.13;;
17927;SDS011;9089;58.396;15.544;2022-09-27T02:32:00;1.40;;;1.27;;
17927;SDS011;9089;58.396;15.544;2022-09-27T02:34:28;2.25;;;1.20;;
17927;SDS011;9089;58.396;15.544;2022-09-27T02:36:55;3.33;;;1.35;;
17927;SDS011;9089;58.396;15.544;2022-09-27T02:39:21;4.63;;;1.40;;
17927;SDS011;9089;58.396;15.544;2022-09-27T02:41:55;5.25;;;1.27;;
17927;SDS011;9089;58.396;15.544;2022-09-27T02:44:22;7.68;;;1.40;;
17927;SDS011;9089;58.396;15.544;2022-09-27T02:46:53;2.83;;;1.35;;
17927;SDS011;9089;58.396;15.544;2022-09-27T02:49:32;2.92;;;1.30;;
17927;SDS011;9089;58.396;15.544;2022-09-27T02:52:37;4.00;;;1.60;;
17927;SDS011;9089;58.396;15.544;2022-09-27T02:55:09;1.92;;;1.38;;
17927;SDS011;9089;58.396;15.544;2022-09-27T02:57:59;1.95;;;1.25;;
17927;SDS011;9089;58.396;15.544;2022-09-27T03:00:41;1.65;;;1.30;;
17927;SDS011;9089;58.396;15.544;2022-09-27T03:03:35;1.77;;;1.38;;
17927;SDS011;9089;58.396;15.544;2022-09-27T03:06:05;4.07;;;1.52;;
17927;SDS011;9089;58.396;15.544;2022-09-27T03:08:32;1.95;;;1.50;;
17927;SDS011;9089;58.396;15.544;2022-09-27T03:10:58;2.17;;;1.33;;
17927;SDS011;9089;58.396;15.544;2022-09-27T03:13:24;1.95;;;1.20;;
17927;SDS011;9089;58.396;15.544;2022-09-27T03:15:49;4.82;;;1.50;;
17927;SDS011;9089;58.396;15.544;2022-09-27T03:18:18;1.50;;;1.40;;
17927;SDS011;9089;58.396;15.544;2022-09-27T03:21:04;1.98;;;1.30;;
17927;SDS011;9089;58.396;15.544;2022-09-27T03:23:29;4.20;;;1.10;;
17927;SDS011;9089;58.396;15.544;2022-09-27T03:25:55;1.83;;;1.40;;
17927;SDS011;9089;58.396;15.544;2022-09-27T03:28:21;3.90;;;1.25;;
17927;SDS011;9089;58.396;15.544;2022-09-27T03:30:47;3.15;;;1.40;;
17927;SDS011;9089;58.396;15.544;2022-09-27T03:33:31;4.35;;;1.63;;
17927;SDS011;9089;58.396;15.544;2022-09-27T03:36:00;1.85;;;1.30;;
17927;SDS011;9089;58.396;15.544;2022-09-27T03:38:26;2.88;;;1.40;;
17927;SDS011;9089;58.396;15.544;2022-09-27T03:40:52;4.43;;;1.67;;
17927;SDS011;9089;58.396;15.544;2022-09-27T03:43:18;2.83;;;1.50;;
17927;SDS011;9089;58.396;15.544;2022-09-27T03:45:44;2.83;;;1.60;;
17927;SDS011;9089;58.396;15.544;2022-09-27T03:48:10;1.70;;;1.60;;
17927;SDS011;9089;58.396;15.544;2022-09-27T03:50:35;5.43;;;1.70;;
17927;SDS011;9089;58.396;15.544;2022-09-27T03:53:01;2.30;;;1.50;;
17927;SDS011;9089;58.396;15.544;2022-09-27T03:55:28;2.20;;;2.00;;
17927;SDS011;9089;58.396;15.544;2022-09-27T03:57:53;4.55;;;1.70;;
17927;SDS011;9089;58.396;15.544;2022-09-27T04:00:20;3.58;;;1.80;;
17927;SDS011;9089;58.396;15.544;2022-09-27T04:02:45;3.42;;;1.58;;
17927;SDS011;9089;58.396;15.544;2022-09-27T04:05:23;1.73;;;1.35;;
17927;SDS011;9089;58.396;15.544;2022-09-27T04:07:52;2.97;;;1.67;;
17927;SDS011;9089;58.396;15.544;2022-09-27T04:10:18;3.85;;;1.80;;
17927;SDS011;9089;58.396;15.544;2022-09-27T04:12:45;3.85;;;1.73;;
17927;SDS011;9089;58.396;15.544;2022-09-27T04:15:11;2.95;;;1.98;;
17927;SDS011;9089;58.396;15.544;2022-09-27T04:17:48;3.08;;;2.13;;
17927;SDS011;9089;58.396;15.544;2022-09-27T04:20:32;5.18;;;2.13;;
17927;SDS011;9089;58.396;15.544;2022-09-27T04:23:02;2.95;;;2.05;;
17927;SDS011;9089;58.396;15.544;2022-09-27T04:25:27;3.60;;;2.08;;
17927;SDS011;9089;58.396;15.544;2022-09-27T04:27:58;6.00;;;2.10;;
17927;SDS011;9089;58.396;15.544;2022-09-27T04:30:24;6.60;;;2.50;;
17927;SDS011;9089;58.396;15.544;2022-09-27T04:33:09;7.95;;;2.00;;
17927;SDS011;9089;58.396;15.544;2022-09-27T04:35:53;7.22;;;2.67;;
17927;SDS011;9089;58.396;15.544;2022-09-27T04:38:39;5.45;;;2.22;;
17927;SDS011;9089;58.396;15.544;2022-09-27T04:41:06;4.30;;;2.08;;
17927;SDS011;9089;58.396;15.544;2022-09-27T04:43:36;3.20;;;2.30;;
17927;SDS011;9089;58.396;15.544;2022-09-27T04:46:02;4.75;;;2.28;;
17927;SDS011;9089;58.396;15.544;2022-09-27T04:48:28;3.42;;;2.28;;
17927;SDS011;9089;58.396;15.544;2022-09-27T04:50:57;3.60;;;2.22;;
17927;SDS011;9089;58.396;15.544;2022-09-27T04:53:23;4.90;;;2.58;;
17927;SDS011;9089;58.396;15.544;2022-09-27T04:55:51;5.20;;;2.90;;
17927;SDS011;9089;58.396;15.544;2022-09-27T04:58:16;5.03;;;2.80;;
17927;SDS011;9089;58.396;15.544;2022-09-27T05:00:45;5.30;;;2.85;;
17927;SDS011;9089;58.396;15.544;2022-09-27T05:03:33;6.07;;;2.75;;
17927;SDS011;9089;58.396;15.544;2022-09-27T05:06:08;6.75;;;3.10;;
17927;SDS011;9089;58.396;15.544;2022-09-27T05:08:33;6.47;;;2.65;;
17927;SDS011;9089;58.396;15.544;2022-09-27T05:11:18;5.38;;;2.78;;
17927;SDS011;9089;58.396;15.544;2022-09-27T05:14:02;4.20;;;2.85;;
17927;SDS011;9089;58.396;15.544;2022-09-27T05:16:31;8.07;;;2.88;;
17927;SDS011;9089;58.396;15.544;2022-09-27T05:19:35;7.20;;;2.92;;
17927;SDS011;9089;58.396;15.544;2022-09-27T05:22:22;5.40;;;3.45;;
17927;SDS011;9089;58.396;15.544;2022-09-27T05:24:50;4.60;;;2.90;;
17927;SDS011;9089;58.396;15.544;2022-09-27T05:27:15;7.35;;;3.10;;
17927;SDS011;9089;58.396;15.544;2022-09-27T05:29:43;4.10;;;3.28;;
17927;SDS011;9089;58.396;15.544;2022-09-27T05:32:29;4.55;;;3.20;;
17927;SDS011;9089;58.396;15.544;2022-09-27T05:35:13;3.58;;;3.05;;
17927;SDS011;9089;58.396;15.544;2022-09-27T05:37:39;5.32;;;3.25;;
17927;SDS011;9089;58.396;15.544;2022-09-27T05:40:05;5.22;;;3.08;;
17927;SDS011;9089;58.396;15.544;2022-09-27T05:42:32;5.72;;;3.55;;
17927;SDS011;9089;58.396;15.544;2022-09-27T05:45:00;5.80;;;3.33;;
17927;SDS011;9089;58.396;15.544;2022-09-27T05:47:26;8.18;;;3.50;;
17927;SDS011;9089;58.396;15.544;2022-09-27T05:49:52;6.28;;;3.03;;
17927;SDS011;9089;58.396;15.544;2022-09-27T05:52:19;6.68;;;3.08;;
17927;SDS011;9089;58.396;15.544;2022-09-27T05:54:45;5.07;;;2.88;;
17927;SDS011;9089;58.396;15.544;2022-09-27T05:57:12;4.75;;;3.35;;
17927;SDS011;9089;58.396;15.544;2022-09-27T05:59:42;5.32;;;3.30;;
17927;SDS011;9089;58.396;15.544;2022-09-27T06:02:16;9.82;;;3.38;;
17927;SDS011;9089;58.396;15.544;2022-09-27T06:05:22;7.10;;;3.05;;
17927;SDS011;9089;58.396;15.544;2022-09-27T06:08:13;3.78;;;2.63;;
17927;SDS011;9089;58.396;15.544;2022-09-27T06:10:43;3.78;;;2.72;;
17927;SDS011;9089;58.396;15.544;2022-09-27T06:13:10;4.10;;;2.65;;
17927;SDS011;9089;58.396;15.544;2022-09-27T06:15:40;5.40;;;2.95;;
17927;SDS011;9089;58.396;15.544;2022-09-27T06:18:07;3.50;;;2.45;;
17927;SDS011;9089;58.396;15.544;2022-09-27T06:20:36;7.65;;;2.72;;
17927;SDS011;9089;58.396;15.544;2022-09-27T06:23:05;3.17;;;2.30;;
17927;SDS011;9089;58.396;15.544;2022-09-27T06:25:31;4.72;;;3.03;;
17927;SDS011;9089;58.396;15.544;2022-09-27T06:28:09;5.50;;;2.40;;
17927;SDS011;9089;58.396;15.544;2022-09-27T06:30:37;3.42;;;2.40;;
17927;SDS011;9089;58.396;15.544;2022-09-27T06:33:09;4.80;;;2.38;;
17927;SDS011;9089;58.396;15.544;2022-09-27T06:35:39;4.90;;;2.40;;
17927;SDS011;9089;58.396;15.544;2022-09-27T06:38:08;4.68;;;2.58;;
17927;SDS011;9089;58.396;15.544;2022-09-27T06:40:38;5.95;;;2.25;;
17927;SDS011;9089;58.396;15.544;2022-09-27T06:43:22;5.07;;;2.30;;
17927;SDS011;9089;58.396;15.544;2022-09-27T06:46:12;4.90;;;2.30;;
17927;SDS011;9089;58.396;15.544;2022-09-27T06:49:00;4.00;;;2.55;;
17927;SDS011;9089;58.396;15.544;2022-09-27T06:51:27;3.70;;;2.20;;
17927;SDS011;9089;58.396;15.544;2022-09-27T06:53:52;3.00;;;2.05;;
17927;SDS011;9089;58.396;15.544;2022-09-27T06:56:19;6.13;;;2.05;;
17927;SDS011;9089;58.396;15.544;2022-09-27T06:58:51;3.42;;;1.85;;
17927;SDS011;9089;58.396;15.544;2022-09-27T07:01:41;4.95;;;2.45;;
17927;SDS011;9089;58.396;15.544;2022-09-27T07:04:25;3.25;;;1.98;;
17927;SDS011;9089;58.396;15.544;2022-09-27T07:07:24;2.92;;;2.03;;
17927;SDS011;9089;58.396;15.544;2022-09-27T07:09:49;4.00;;;1.70;;
17927;SDS011;9089;58.396;15.544;2022-09-27T07:12:16;5.03;;;1.88;;
17927;SDS011;9089;58.396;15.544;2022-09-27T07:14:41;3.72;;;1.98;;
17927;SDS011;9089;58.396;15.544;2022-09-27T07:17:11;4.80;;;1.90;;
17927;SDS011;9089;58.396;15.544;2022-09-27T07:19:41;3.15;;;1.95;;
17927;SDS011;9089;58.396;15.544;2022-09-27T07:22:08;4.53;;;1.90;;
17927;SDS011;9089;58.396;15.544;2022-09-27T07:24:36;5.45;;;1.90;;
17927;SDS011;9089;58.396;15.544;2022-09-27T07:27:02;3.20;;;1.70;;
17927;SDS011;9089;58.396;15.544;2022-09-27T07:29:29;4.53;;;1.60;;
17927;SDS011;9089;58.396;15.544;2022-09-27T07:31:55;2.25;;;1.60;;
17927;SDS011;9089;58.396;15.544;2022-09-27T07:34:21;4.18;;;1.52;;
17927;SDS011;9089;58.396;15.544;2022-09-27T07:36:46;4.00;;;1.95;;
17927;SDS011;9089;58.396;15.544;2022-09-27T07:39:13;2.67;;;1.65;;
17927;SDS011;9089;58.396;15.544;2022-09-27T07:41:40;2.55;;;1.60;;
17927;SDS011;9089;58.396;15.544;2022-09-27T07:44:07;2.47;;;1.52;;
17927;SDS011;9089;58.396;15.544;2022-09-27T07:46:39;3.33;;;2.00;;
17927;SDS011;9089;58.396;15.544;2022-09-27T07:49:06;3.17;;;1.73;;
17927;SDS011;9089;58.396;15.544;2022-09-27T07:51:50;3.15;;;1.83;;
17927;SDS011;9089;58.396;15.544;2022-09-27T07:54:31;3.05;;;1.70;;
17927;SDS011;9089;58.396;15.544;2022-09-27T07:57:06;2.97;;;1.77;;
17927;SDS011;9089;58.396;15.544;2022-09-27T07:59:40;5.28;;;1.73;;
17927;SDS011;9089;58.396;15.544;2022-09-27T08:02:07;1.88;;;1.38;;
17927;SDS011;9089;58.396;15.544;2022-09-27T08:04:36;4.53;;;1.70;;
17927;SDS011;9089;58.396;15.544;2022-09-27T08:07:01;3.13;;;1.55;;
17927;SDS011;9089;58.396;15.544;2022-09-27T08:09:28;5.97;;;1.80;;
17927;SDS011;9089;58.396;15.544;2022-09-27T08:11:55;4.93;;;1.67;;
17927;SDS011;9089;58.396;15.544;2022-09-27T08:14:23;3.15;;;1.65;;
17927;SDS011;9089;58.396;15.544;2022-09-27T08:16:50;1.70;;;1.25;;
17927;SDS011;9089;58.396;15.544;2022-09-27T08:19:31;1.52;;;1.20;;
17927;SDS011;9089;58.396;15.544;2022-09-27T08:22:05;2.75;;;1.50;;
17927;SDS011;9089;58.396;15.544;2022-09-27T08:24:46;3.50;;;1.23;;
17927;SDS011;9089;58.396;15.544;2022-09-27T08:27:31;2.10;;;1.40;;
17927;SDS011;9089;58.396;15.544;2022-09-27T08:30:02;3.70;;;1.40;;
17927;SDS011;9089;58.396;15.544;2022-09-27T08:32:28;2.58;;;1.52;;
17927;SDS011;9089;58.396;15.544;2022-09-27T08:34:55;2.75;;;1.33;;
17927;SDS011;9089;58.396;15.544;2022-09-27T08:37:21;4.82;;;1.90;;
17927;SDS011;9089;58.396;15.544;2022-09-27T08:39:47;2.63;;;1.60;;
17927;SDS011;9089;58.396;15.544;2022-09-27T08:42:16;3.75;;;2.03;;
17927;SDS011;9089;58.396;15.544;2022-09-27T08:44:46;4.15;;;1.70;;
17927;SDS011;9089;58.396;15.544;2022-09-27T08:47:19;1.90;;;1.50;;
17927;SDS011;9089;58.396;15.544;2022-09-27T08:49:50;4.07;;;2.20;;
17927;SDS011;9089;58.396;15.544;2022-09-27T08:52:18;3.83;;;2.00;;
17927;SDS011;9089;58.396;15.544;2022-09-27T08:54:45;3.75;;;2.30;;
17927;SDS011;9089;58.396;15.544;2022-09-27T08:57:11;4.90;;;1.95;;
17927;SDS011;9089;58.396;15.544;2022-09-27T08:59:38;2.22;;;1.65;;
17927;SDS011;9089;58.396;15.544;2022-09-27T09:02:08;3.72;;;2.15;;
17927;SDS011;9089;58.396;15.544;2022-09-27T09:04:43;5.53;;;2.45;;
17927;SDS011;9089;58.396;15.544;2022-09-27T09:07:13;2.10;;;1.70;;
17927;SDS011;9089;58.396;15.544;2022-09-27T09:09:43;2.30;;;1.98;;
17927;SDS011;9089;58.396;15.544;2022-09-27T09:12:23;3.95;;;2.00;;
17927;SDS011;9089;58.396;15.544;2022-09-27T09:15:15;4.15;;;2.33;;
17927;SDS011;9089;58.396;15.544;2022-09-27T09:17:50;3.38;;;2.60;;
17927;SDS011;9089;58.396;15.544;2022-09-27T09:20:31;3.60;;;2.47;;
17927;SDS011;9089;58.396;15.544;2022-09-27T09:23:12;6.30;;;3.00;;
17927;SDS011;9089;58.396;15.544;2022-09-27T09:25:41;3.08;;;2.42;;
17927;SDS011;9089;58.396;15.544;2022-09-27T09:28:14;3.15;;;2.50;;
17927;SDS011;9089;58.396;15.544;2022-09-27T09:30:45;7.03;;;3.15;;
17927;SDS011;9089;58.396;15.544;2022-09-27T09:33:15;5.35;;;2.78;;
17927;SDS011;9089;58.396;15.544;2022-09-27T09:35:44;4.95;;;2.88;;
17927;SDS011;9089;58.396;15.544;2022-09-27T09:38:13;5.13;;;2.78;;
17927;SDS011;9089;58.396;15.544;2022-09-27T09:40:42;3.40;;;2.88;;
17927;SDS011;9089;58.396;15.544;2022-09-27T09:43:11;4.03;;;3.10;;
17927;SDS011;9089;58.396;15.544;2022-09-27T09:45:39;3.88;;;2.70;;
17927;SDS011;9089;58.396;15.544;2022-09-27T09:48:08;4.65;;;3.05;;
17927;SDS011;9089;58.396;15.544;2022-09-27T09:50:40;3.67;;;2.80;;
17927;SDS011;9089;58.396;15.544;2022-09-27T09:53:11;4.43;;;2.85;;
17927;SDS011;9089;58.396;15.544;2022-09-27T09:55:38;4.18;;;2.90;;
17927;SDS011;9089;58.396;15.544;2022-09-27T09:58:10;4.90;;;2.92;;
17927;SDS011;9089;58.396;15.544;2022-09-27T10:00:42;4.82;;;3.13;;
17927;SDS011;9089;58.396;15.544;2022-09-27T10:03:08;3.60;;;3.00;;
17927;SDS011;9089;58.396;15.544;2022-09-27T10:05:34;4.88;;;3.08;;
17927;SDS011;9089;58.396;15.544;2022-09-27T10:08:04;3.25;;;2.78;;
17927;SDS011;9089;58.396;15.544;2022-09-27T10:10:33;3.70;;;2.70;;
17927;SDS011;9089;58.396;15.544;2022-09-27T10:13:04;4.75;;;2.60;;
17927;SDS011;9089;58.396;15.544;2022-09-27T10:15:35;2.80;;;2.60;;
17927;SDS011;9089;58.396;15.544;2022-09-27T10:18:01;2.90;;;2.38;;
17927;SDS011;9089;58.396;15.544;2022-09-27T10:20:29;3.00;;;2.70;;
17927;SDS011;9089;58.396;15.544;2022-09-27T10:22:58;4.95;;;2.70;;
17927;SDS011;9089;58.396;15.544;2022-09-27T10:26:02;4.82;;;3.05;;
17927;SDS011;9089;58.396;15.544;2022-09-27T10:28:38;3.92;;;2.70;;
17927;SDS011;9089;58.396;15.544;2022-09-27T10:31:07;2.75;;;2.45;;
17927;SDS011;9089;58.396;15.544;2022-09-27T10:33:52;2.28;;;1.92;;
17927;SDS011;9089;58.396;15.544;2022-09-27T10:36:22;2.95;;;2.03;;
17927;SDS011;9089;58.396;15.544;2022-09-27T10:38:51;2.72;;;2.00;;
17927;SDS011;9089;58.396;15.544;2022-09-27T10:41:26;3.35;;;2.00;;
17927;SDS011;9089;58.396;15.544;2022-09-27T10:44:23;3.92;;;2.03;;
17927;SDS011;9089;58.396;15.544;2022-09-27T10:46:59;4.15;;;2.05;;
17927;SDS011;9089;58.396;15.544;2022-09-27T10:49:45;2.20;;;1.88;;
17927;SDS011;9089;58.396;15.544;2022-09-27T10:52:20;2.08;;;1.90;;
17927;SDS011;9089;58.396;15.544;2022-09-27T10:54:53;5.28;;;2.10;;
17927;SDS011;9089;58.396;15.544;2022-09-27T10:57:21;3.28;;;2.10;;
17927;SDS011;9089;58.396;15.544;2022-09-27T10:59:52;2.67;;;1.75;;
17927;SDS011;9089;58.396;15.544;2022-09-27T11:02:18;1.70;;;1.60;;
17927;SDS011;9089;58.396;15.544;2022-09-27T11:05:06;1.98;;;1.50;;
17927;SDS011;9089;58.396;15.544;2022-09-27T11:07:34;1.42;;;1.25;;
17927;SDS011;9089;58.396;15.544;2022-09-27T11:10:19;2.70;;;1.75;;
17927;SDS011;9089;58.396;15.544;2022-09-27T11:12:50;4.65;;;1.73;;
17927;SDS011;9089;58.396;15.544;2022-09-27T11:15:29;2.78;;;1.70;;
17927;SDS011;9089;58.396;15.544;2022-09-27T11:17:58;1.67;;;1.42;;
17927;SDS011;9089;58.396;15.544;2022-09-27T11:20:26;2.00;;;1.55;;
17927;SDS011;9089;58.396;15.544;2022-09-27T11:25:40;2.67;;;1.50;;
17927;SDS011;9089;58.396;15.544;2022-09-27T11:28:14;2.08;;;1.88;;
17927;SDS011;9089;58.396;15.544;2022-09-27T11:30:44;1.77;;;1.60;;
17927;SDS011;9089;58.396;15.544;2022-09-27T11:33:33;2.03;;;1.65;;
17927;SDS011;9089;58.396;15.544;2022-09-27T11:36:02;3.08;;;1.85;;
17927;SDS011;9089;58.396;15.544;2022-09-27T11:38:29;1.90;;;1.45;;
17927;SDS011;9089;58.396;15.544;2022-09-27T11:41:09;2.33;;;1.73;;
17927;SDS011;9089;58.396;15.544;2022-09-27T11:43:44;2.03;;;1.58;;
17927;SDS011;9089;58.396;15.544;2022-09-27T11:46:17;2.65;;;1.50;;
17927;SDS011;9089;58.396;15.544;2022-09-27T11:48:52;2.17;;;1.88;;
17927;SDS011;9089;58.396;15.544;2022-09-27T11:51:29;2.67;;;1.95;;
17927;SDS011;9089;58.396;15.544;2022-09-27T11:54:03;3.40;;;2.20;;
17927;SDS011;9089;58.396;15.544;2022-09-27T11:56:35;3.25;;;2.00;;
17927;SDS011;9089;58.396;15.544;2022-09-27T12:01:48;2.83;;;1.70;;
17927;SDS011;9089;58.396;15.544;2022-09-27T12:04:22;3.88;;;2.00;;
17927;SDS011;9089;58.396;15.544;2022-09-27T12:06:54;2.72;;;2.15;;
17927;SDS011;9089;58.396;15.544;2022-09-27T12:09:22;2.85;;;2.15;;
17927;SDS011;9089;58.396;15.544;2022-09-27T12:11:55;2.38;;;1.70;;
17927;SDS011;9089;58.396;15.544;2022-09-27T12:14:24;2.78;;;2.00;;
17927;SDS011;9089;58.396;15.544;2022-09-27T12:16:53;1.63;;;1.50;;
17927;SDS011;9089;58.396;15.544;2022-09-27T12:19:21;2.50;;;1.85;;
17927;SDS011;9089;58.396;15.544;2022-09-27T12:22:01;2.08;;;1.88;;
17927;SDS011;9089;58.396;15.544;2022-09-27T12:24:28;2.75;;;1.83;;
17927;SDS011;9089;58.396;15.544;2022-09-27T12:27:29;3.33;;;2.00;;
17927;SDS011;9089;58.396;15.544;2022-09-27T12:29:56;1.88;;;1.73;;
17927;SDS011;9089;58.396;15.544;2022-09-27T12:32:25;2.33;;;2.03;;
17927;SDS011;9089;58.396;15.544;2022-09-27T12:34:53;3.03;;;2.20;;
17927;SDS011;9089;58.396;15.544;2022-09-27T12:37:21;2.60;;;1.75;;
17927;SDS011;9089;58.396;15.544;2022-09-27T12:39:50;2.60;;;1.98;;
17927;SDS011;9089;58.396;15.544;2022-09-27T12:42:28;2.15;;;1.75;;
17927;SDS011;9089;58.396;15.544;2022-09-27T12:44:59;4.15;;;2.00;;
17927;SDS011;9089;58.396;15.544;2022-09-27T12:50:16;3.67;;;1.83;;
17927;SDS011;9089;58.396;15.544;2022-09-27T12:52:48;2.85;;;2.00;;
17927;SDS011;9089;58.396;15.544;2022-09-27T12:55:26;3.25;;;2.08;;
17927;SDS011;9089;58.396;15.544;2022-09-27T12:58:05;2.22;;;2.00;;
17927;SDS011;9089;58.396;15.544;2022-09-27T13:00:35;2.38;;;2.10;;
17927;SDS011;9089;58.396;15.544;2022-09-27T13:03:25;3.25;;;2.13;;
17927;SDS011;9089;58.396;15.544;2022-09-27T13:06:15;2.63;;;2.15;;
17927;SDS011;9089;58.396;15.544;2022-09-27T13:11:35;2.45;;;1.70;;
17927;SDS011;9089;58.396;15.544;2022-09-27T13:14:04;3.80;;;1.70;;
17927;SDS011;9089;58.396;15.544;2022-09-27T13:16:31;5.97;;;1.65;;
17927;SDS011;9089;58.396;15.544;2022-09-27T13:19:13;4.57;;;1.63;;
17927;SDS011;9089;58.396;15.544;2022-09-27T13:21:58;1.73;;;1.63;;
17927;SDS011;9089;58.396;15.544;2022-09-27T13:24:47;2.80;;;1.90;;
17927;SDS011;9089;58.396;15.544;2022-09-27T13:27:39;2.70;;;2.50;;
17927;SDS011;9089;58.396;15.544;2022-09-27T13:35:38;2.80;;;1.92;;
17927;SDS011;9089;58.396;15.544;2022-09-27T13:38:19;2.30;;;1.65;;
17927;SDS011;9089;58.396;15.544;2022-09-27T13:40:47;3.10;;;2.08;;
17927;SDS011;9089;58.396;15.544;2022-09-27T13:43:34;2.10;;;1.90;;
17927;SDS011;9089;58.396;15.544;2022-09-27T13:46:16;1.95;;;1.75;;
17927;SDS011;9089;58.396;15.544;2022-09-27T13:48:45;3.03;;;2.00;;
17927;SDS011;9089;58.396;15.544;2022-09-27T13:51:16;1.90;;;1.80;;
17927;SDS011;9089;58.396;15.544;2022-09-27T13:53:53;2.22;;;2.03;;
17927;SDS011;9089;58.396;15.544;2022-09-27T13:59:01;4.05;;;1.70;;
17927;SDS011;9089;58.396;15.544;2022-09-27T14:01:48;2.03;;;1.80;;
17927;SDS011;9089;58.396;15.544;2022-09-27T14:04:18;1.80;;;1.60;;
17927;SDS011;9089;58.396;15.544;2022-09-27T14:06:47;2.72;;;2.05;;
17927;SDS011;9089;58.396;15.544;2022-09-27T14:09:16;3.00;;;2.20;;
17927;SDS011;9089;58.396;15.544;2022-09-27T14:11:43;2.10;;;1.88;;
17927;SDS011;9089;58.396;15.544;2022-09-27T14:14:13;1.88;;;1.77;;
17927;SDS011;9089;58.396;15.544;2022-09-27T14:16:44;1.98;;;1.77;;
17927;SDS011;9089;58.396;15.544;2022-09-27T14:19:12;2.85;;;2.03;;
17927;SDS011;9089;58.396;15.544;2022-09-27T14:21:40;2.80;;;1.98;;
17927;SDS011;9089;58.396;15.544;2022-09-27T14:24:23;2.55;;;2.08;;
17927;SDS011;9089;58.396;15.544;2022-09-27T14:27:01;2.17;;;1.80;;
17927;SDS011;9089;58.396;15.544;2022-09-27T14:29:29;2.05;;;1.85;;
17927;SDS011;9089;58.396;15.544;2022-09-27T14:32:02;2.00;;;1.80;;
17927;SDS011;9089;58.396;15.544;2022-09-27T14:34:37;2.35;;;2.15;;
17927;SDS011;9089;58.396;15.544;2022-09-27T14:37:03;2.65;;;1.65;;
17927;SDS011;9089;58.396;15.544;2022-09-27T14:39:56;2.50;;;2.30;;
17927;SDS011;9089;58.396;15.544;2022-09-27T14:42:29;3.65;;;2.50;;
17927;SDS011;9089;58.396;15.544;2022-09-27T14:45:02;2.85;;;2.15;;
17927;SDS011;9089;58.396;15.544;2022-09-27T14:47:28;2.67;;;2.10;;
17927;SDS011;9089;58.396;15.544;2022-09-27T14:49:55;2.63;;;2.28;;
17927;SDS011;9089;58.396;15.544;2022-09-27T14:52:22;2.78;;;1.90;;
17927;SDS011;9089;58.396;15.544;2022-09-27T14:54:57;2.40;;;2.20;;
17927;SDS011;9089;58.396;15.544;2022-09-27T14:57:23;2.58;;;2.38;;
17927;SDS011;9089;58.396;15.544;2022-09-27T14:59:49;3.90;;;2.50;;
17927;SDS011;9089;58.396;15.544;2022-09-27T15:02:16;2.67;;;2.30;;
17927;SDS011;9089;58.396;15.544;2022-09-27T15:04:42;4.95;;;2.42;;
17927;SDS011;9089;58.396;15.544;2022-09-27T15:07:08;4.93;;;2.30;;
17927;SDS011;9089;58.396;15.544;2022-09-27T15:09:33;2.40;;;2.20;;
17927;SDS011;9089;58.396;15.544;2022-09-27T15:12:00;3.78;;;2.53;;
17927;SDS011;9089;58.396;15.544;2022-09-27T15:14:26;2.88;;;2.50;;
17927;SDS011;9089;58.396;15.544;2022-09-27T15:16:53;2.60;;;2.40;;
17927;SDS011;9089;58.396;15.544;2022-09-27T15:19:21;8.88;;;2.70;;
17927;SDS011;9089;58.396;15.544;2022-09-27T15:21:47;2.65;;;2.17;;
17927;SDS011;9089;58.396;15.544;2022-09-27T15:26:53;3.58;;;2.35;;
17927;SDS011;9089;58.396;15.544;2022-09-27T15:29:20;6.35;;;2.45;;
17927;SDS011;9089;58.396;15.544;2022-09-27T15:31:56;2.15;;;1.95;;
17927;SDS011;9089;58.396;15.544;2022-09-27T15:34:22;5.93;;;2.05;;
17927;SDS011;9089;58.396;15.544;2022-09-27T15:36:50;2.50;;;2.30;;
17927;SDS011;9089;58.396;15.544;2022-09-27T15:39:17;2.25;;;2.00;;